Terminal Aerodrome Forecast
Issued by NWS

Home | Current Version | Previous Version | Graphics & Text | Print | Product List | Glossary On
Versions: 1 2 3 4 5 6 7 8 9 10 11 12 13 14 15 16 17 18 19
000
FTUS43 KICT 021120
TAFHUT
TAF
KHUT 021120Z 0212/0312 04006KT P6SM FEW009 SCT015 BKN250
     FM021500 05009KT P6SM VCTS SCT030 BKN060CB
      TEMPO 0216/0220 -SHRA SCT030 BKN060
     FM022100 03008KT P6SM SCT060 BKN150=

USA.gov is the U.S. government's official web portal to all federal, state and local government web resources and services.